sensor_id;sensor_type;location;lat;lon;timestamp;temperature;humidity
15967;DHT22;15175;48.154;11.534;2023-03-14T00:00:57;12.30;99.90
15967;DHT22;15175;48.154;11.534;2023-03-14T00:03:24;12.30;99.90
15967;DHT22;15175;48.154;11.534;2023-03-14T00:05:51;12.30;99.90
15967;DHT22;15175;48.154;11.534;2023-03-14T00:08:18;12.20;99.90
15967;DHT22;15175;48.154;11.534;2023-03-14T00:10:47;12.30;99.90
15967;DHT22;15175;48.154;11.534;2023-03-14T00:13:14;12.30;99.90
15967;DHT22;15175;48.154;11.534;2023-03-14T00:15:42;12.30;99.90
15967;DHT22;15175;48.154;11.534;2023-03-14T00:18:09;12.30;99.90
15967;DHT22;15175;48.154;11.534;2023-03-14T00:20:37;12.30;99.90
15967;DHT22;15175;48.154;11.534;2023-03-14T00:23:04;12.30;99.90
15967;DHT22;15175;48.154;11.534;2023-03-14T00:25:31;12.30;99.90
15967;DHT22;15175;48.154;11.534;2023-03-14T00:27:58;12.30;99.90
15967;DHT22;15175;48.154;11.534;2023-03-14T00:30:25;12.30;99.90
15967;DHT22;15175;48.154;11.534;2023-03-14T00:32:53;12.30;99.90
15967;DHT22;15175;48.154;11.534;2023-03-14T00:35:22;12.20;99.90
15967;DHT22;15175;48.154;11.534;2023-03-14T00:37:49;12.20;99.90
15967;DHT22;15175;48.154;11.534;2023-03-14T00:40:17;12.20;99.90
15967;DHT22;15175;48.154;11.534;2023-03-14T00:42:44;12.20;99.90
15967;DHT22;15175;48.154;11.534;2023-03-14T00:45:11;12.10;99.90
15967;DHT22;15175;48.154;11.534;2023-03-14T00:47:38;12.10;99.90
15967;DHT22;15175;48.154;11.534;2023-03-14T00:50:08;12.10;99.90
15967;DHT22;15175;48.154;11.534;2023-03-14T00:52:35;12.10;99.90
15967;DHT22;15175;48.154;11.534;2023-03-14T00:55:03;12.10;99.90
15967;DHT22;15175;48.154;11.534;2023-03-14T00:57:30;12.10;99.90
15967;DHT22;15175;48.154;11.534;2023-03-14T00:59:57;12.10;99.90
15967;DHT22;15175;48.154;11.534;2023-03-14T01:02:24;12.10;99.90
15967;DHT22;15175;48.154;11.534;2023-03-14T01:04:52;12.10;99.90
15967;DHT22;15175;48.154;11.534;2023-03-14T01:07:20;12.00;99.90
15967;DHT22;15175;48.154;11.534;2023-03-14T01:09:51;12.00;99.90
15967;DHT22;15175;48.154;11.534;2023-03-14T01:12:18;12.00;99.90
15967;DHT22;15175;48.154;11.534;2023-03-14T01:14:45;12.00;99.90
15967;DHT22;15175;48.154;11.534;2023-03-14T01:17:12;12.00;99.90
15967;DHT22;15175;48.154;11.534;2023-03-14T01:19:40;12.00;99.90
15967;DHT22;15175;48.154;11.534;2023-03-14T01:22:07;11.90;99.90
15967;DHT22;15175;48.154;11.534;2023-03-14T01:24:36;11.90;99.90
15967;DHT22;15175;48.154;11.534;2023-03-14T01:27:04;12.00;99.90
15967;DHT22;15175;48.154;11.534;2023-03-14T01:29:31;11.90;99.90
15967;DHT22;15175;48.154;11.534;2023-03-14T01:31:58;11.90;99.90
15967;DHT22;15175;48.154;11.534;2023-03-14T01:34:25;11.90;99.90
15967;DHT22;15175;48.154;11.534;2023-03-14T01:36:52;11.90;99.90
15967;DHT22;15175;48.154;11.534;2023-03-14T01:39:19;11.90;99.90
15967;DHT22;15175;48.154;11.534;2023-03-14T01:41:48;11.80;99.90
15967;DHT22;15175;48.154;11.534;2023-03-14T01:44:16;11.80;99.90
15967;DHT22;15175;48.154;11.534;2023-03-14T01:46:44;11.80;99.90
15967;DHT22;15175;48.154;11.534;2023-03-14T01:49:19;11.70;99.90
15967;DHT22;15175;48.154;11.534;2023-03-14T01:51:57;11.70;99.90
15967;DHT22;15175;48.154;11.534;2023-03-14T01:54:30;11.60;99.90
15967;DHT22;15175;48.154;11.534;2023-03-14T01:57:04;11.50;99.90
15967;DHT22;15175;48.154;11.534;2023-03-14T01:59:33;11.40;99.90
15967;DHT22;15175;48.154;11.534;2023-03-14T02:02:02;11.40;99.90
15967;DHT22;15175;48.154;11.534;2023-03-14T02:04:33;11.30;99.90
15967;DHT22;15175;48.154;11.534;2023-03-14T02:07:05;11.30;99.90
15967;DHT22;15175;48.154;11.534;2023-03-14T02:09:40;11.20;99.90
15967;DHT22;15175;48.154;11.534;2023-03-14T02:12:13;11.10;99.90
15967;DHT22;15175;48.154;11.534;2023-03-14T02:14:46;11.10;99.90
15967;DHT22;15175;48.154;11.534;2023-03-14T02:17:28;11.00;99.90
15967;DHT22;15175;48.154;11.534;2023-03-14T02:20:08;11.00;99.90
15967;DHT22;15175;48.154;11.534;2023-03-14T02:22:42;11.00;99.90
15967;DHT22;15175;48.154;11.534;2023-03-14T02:25:14;10.90;99.90
15967;DHT22;15175;48.154;11.534;2023-03-14T02:27:46;10.90;99.90
15967;DHT22;15175;48.154;11.534;2023-03-14T02:30:16;10.80;99.90
15967;DHT22;15175;48.154;11.534;2023-03-14T02:32:47;10.80;99.90
15967;DHT22;15175;48.154;11.534;2023-03-14T02:35:19;10.70;99.90
15967;DHT22;15175;48.154;11.534;2023-03-14T02:37:51;10.70;99.90
15967;DHT22;15175;48.154;11.534;2023-03-14T02:40:20;10.70;99.90
15967;DHT22;15175;48.154;11.534;2023-03-14T02:42:52;10.60;99.90
15967;DHT22;15175;48.154;11.534;2023-03-14T02:45:38;10.50;99.90
15967;DHT22;15175;48.154;11.534;2023-03-14T02:48:11;10.40;99.90
15967;DHT22;15175;48.154;11.534;2023-03-14T02:50:39;10.30;99.90
15967;DHT22;15175;48.154;11.534;2023-03-14T02:53:06;10.30;99.90
15967;DHT22;15175;48.154;11.534;2023-03-14T02:55:34;10.20;99.90
15967;DHT22;15175;48.154;11.534;2023-03-14T02:58:08;10.20;99.90
15967;DHT22;15175;48.154;11.534;2023-03-14T03:00:35;10.10;99.90
15967;DHT22;15175;48.154;11.534;2023-03-14T03:03:04;10.10;99.90
15967;DHT22;15175;48.154;11.534;2023-03-14T03:05:32;10.10;99.90
15967;DHT22;15175;48.154;11.534;2023-03-14T03:08:01;10.10;99.90
15967;DHT22;15175;48.154;11.534;2023-03-14T03:10:29;10.10;99.90
15967;DHT22;15175;48.154;11.534;2023-03-14T03:12:57;10.10;99.90
15967;DHT22;15175;48.154;11.534;2023-03-14T03:15:27;10.10;99.90
15967;DHT22;15175;48.154;11.534;2023-03-14T03:17:56;10.10;99.90
15967;DHT22;15175;48.154;11.534;2023-03-14T03:20:23;10.10;99.90
15967;DHT22;15175;48.154;11.534;2023-03-14T03:22:50;10.10;99.90
15967;DHT22;15175;48.154;11.534;2023-03-14T03:25:17;10.10;99.90
15967;DHT22;15175;48.154;11.534;2023-03-14T03:27:45;10.10;99.90
15967;DHT22;15175;48.154;11.534;2023-03-14T03:30:16;10.00;99.90
15967;DHT22;15175;48.154;11.534;2023-03-14T03:32:44;10.00;99.90
15967;DHT22;15175;48.154;11.534;2023-03-14T03:35:12;10.00;99.90
15967;DHT22;15175;48.154;11.534;2023-03-14T03:37:41;10.00;99.90
15967;DHT22;15175;48.154;11.534;2023-03-14T03:40:09;10.00;99.90
15967;DHT22;15175;48.154;11.534;2023-03-14T03:42:37;10.00;99.90
15967;DHT22;15175;48.154;11.534;2023-03-14T03:45:09;10.00;99.90
15967;DHT22;15175;48.154;11.534;2023-03-14T03:47:44;10.00;99.90
15967;DHT22;15175;48.154;11.534;2023-03-14T03:50:11;9.90;99.90
15967;DHT22;15175;48.154;11.534;2023-03-14T03:52:38;9.90;99.90
15967;DHT22;15175;48.154;11.534;2023-03-14T03:55:06;9.90;99.90
15967;DHT22;15175;48.154;11.534;2023-03-14T03:57:34;9.80;99.90
15967;DHT22;15175;48.154;11.534;2023-03-14T04:00:01;9.80;99.90
15967;DHT22;15175;48.154;11.534;2023-03-14T04:02:40;9.80;99.90
15967;DHT22;15175;48.154;11.534;2023-03-14T04:05:11;9.80;99.90
15967;DHT22;15175;48.154;11.534;2023-03-14T04:07:44;9.80;99.90
15967;DHT22;15175;48.154;11.534;2023-03-14T04:10:15;9.80;99.90
15967;DHT22;15175;48.154;11.534;2023-03-14T04:12:56;9.70;99.90
15967;DHT22;15175;48.154;11.534;2023-03-14T04:15:27;9.80;99.90
15967;DHT22;15175;48.154;11.534;2023-03-14T04:17:56;9.70;99.90
15967;DHT22;15175;48.154;11.534;2023-03-14T04:20:25;9.70;99.90
15967;DHT22;15175;48.154;11.534;2023-03-14T04:22:53;9.70;99.90
15967;DHT22;15175;48.154;11.534;2023-03-14T04:25:21;9.70;99.90
15967;DHT22;15175;48.154;11.534;2023-03-14T04:27:53;9.70;99.90
15967;DHT22;15175;48.154;11.534;2023-03-14T04:30:26;9.70;99.90
15967;DHT22;15175;48.154;11.534;2023-03-14T04:32:58;9.70;99.90
15967;DHT22;15175;48.154;11.534;2023-03-14T04:35:30;9.70;99.90
15967;DHT22;15175;48.154;11.534;2023-03-14T04:38:01;9.70;99.90
15967;DHT22;15175;48.154;11.534;2023-03-14T04:40:30;9.70;99.90
15967;DHT22;15175;48.154;11.534;2023-03-14T04:43:02;9.60;99.90
15967;DHT22;15175;48.154;11.534;2023-03-14T04:45:30;9.60;99.90
15967;DHT22;15175;48.154;11.534;2023-03-14T04:47:59;9.60;99.90
15967;DHT22;15175;48.154;11.534;2023-03-14T04:50:28;9.60;99.90
15967;DHT22;15175;48.154;11.534;2023-03-14T04:52:55;9.60;99.90
15967;DHT22;15175;48.154;11.534;2023-03-14T04:55:23;9.60;99.90
15967;DHT22;15175;48.154;11.534;2023-03-14T04:57:51;9.70;99.90
15967;DHT22;15175;48.154;11.534;2023-03-14T05:00:19;9.60;99.90
15967;DHT22;15175;48.154;11.534;2023-03-14T05:03:04;9.60;99.90
15967;DHT22;15175;48.154;11.534;2023-03-14T05:05:53;9.60;99.90
15967;DHT22;15175;48.154;11.534;2023-03-14T05:08:39;9.60;99.90
15967;DHT22;15175;48.154;11.534;2023-03-14T05:11:32;9.60;99.90
15967;DHT22;15175;48.154;11.534;2023-03-14T05:14:22;9.60;99.90
15967;DHT22;15175;48.154;11.534;2023-03-14T05:16:56;9.60;99.90
15967;DHT22;15175;48.154;11.534;2023-03-14T05:19:40;9.60;99.90
15967;DHT22;15175;48.154;11.534;2023-03-14T05:22:12;9.60;99.90
15967;DHT22;15175;48.154;11.534;2023-03-14T05:24:59;9.50;99.90
15967;DHT22;15175;48.154;11.534;2023-03-14T05:28:00;9.50;99.90
15967;DHT22;15175;48.154;11.534;2023-03-14T05:30:56;9.50;99.90
15967;DHT22;15175;48.154;11.534;2023-03-14T05:33:44;9.60;99.90
15967;DHT22;15175;48.154;11.534;2023-03-14T05:36:34;9.60;99.90
15967;DHT22;15175;48.154;11.534;2023-03-14T05:39:29;9.60;99.90
15967;DHT22;15175;48.154;11.534;2023-03-14T05:42:11;9.60;99.90
15967;DHT22;15175;48.154;11.534;2023-03-14T05:44:58;9.60;99.90
15967;DHT22;15175;48.154;11.534;2023-03-14T05:47:52;9.60;99.90
15967;DHT22;15175;48.154;11.534;2023-03-14T05:50:39;9.60;99.90
15967;DHT22;15175;48.154;11.534;2023-03-14T05:53:20;9.50;99.90
15967;DHT22;15175;48.154;11.534;2023-03-14T05:56:09;9.60;99.90
15967;DHT22;15175;48.154;11.534;2023-03-14T05:58:57;9.60;99.90
15967;DHT22;15175;48.154;11.534;2023-03-14T06:01:32;9.60;99.90
15967;DHT22;15175;48.154;11.534;2023-03-14T06:04:08;9.60;99.90
15967;DHT22;15175;48.154;11.534;2023-03-14T06:06:35;9.60;99.90
15967;DHT22;15175;48.154;11.534;2023-03-14T06:09:03;9.60;99.90
15967;DHT22;15175;48.154;11.534;2023-03-14T06:11:34;9.50;99.90
15967;DHT22;15175;48.154;11.534;2023-03-14T06:14:03;9.50;99.90
15967;DHT22;15175;48.154;11.534;2023-03-14T06:16:30;9.50;99.90
15967;DHT22;15175;48.154;11.534;2023-03-14T06:18:58;9.50;99.90
15967;DHT22;15175;48.154;11.534;2023-03-14T06:21:27;9.40;99.90
15967;DHT22;15175;48.154;11.534;2023-03-14T06:23:54;9.40;99.90
15967;DHT22;15175;48.154;11.534;2023-03-14T06:26:23;9.40;99.90
15967;DHT22;15175;48.154;11.534;2023-03-14T06:28:51;9.30;99.90
15967;DHT22;15175;48.154;11.534;2023-03-14T06:31:19;9.40;99.90
15967;DHT22;15175;48.154;11.534;2023-03-14T06:33:53;9.40;99.90
15967;DHT22;15175;48.154;11.534;2023-03-14T06:36:22;9.30;99.90
15967;DHT22;15175;48.154;11.534;2023-03-14T06:38:50;9.30;99.90
15967;DHT22;15175;48.154;11.534;2023-03-14T06:41:18;9.30;99.90
15967;DHT22;15175;48.154;11.534;2023-03-14T06:43:48;9.40;99.90
15967;DHT22;15175;48.154;11.534;2023-03-14T06:46:17;9.40;99.90
15967;DHT22;15175;48.154;11.534;2023-03-14T06:48:44;9.40;99.90
15967;DHT22;15175;48.154;11.534;2023-03-14T06:51:13;9.50;99.90
15967;DHT22;15175;48.154;11.534;2023-03-14T06:53:41;9.50;99.90
15967;DHT22;15175;48.154;11.534;2023-03-14T06:56:09;9.50;99.90
15967;DHT22;15175;48.154;11.534;2023-03-14T06:58:36;9.50;99.90
15967;DHT22;15175;48.154;11.534;2023-03-14T07:01:06;9.50;99.90
15967;DHT22;15175;48.154;11.534;2023-03-14T07:03:41;9.50;99.90
15967;DHT22;15175;48.154;11.534;2023-03-14T07:06:08;9.50;99.90
15967;DHT22;15175;48.154;11.534;2023-03-14T07:08:36;9.50;99.90
15967;DHT22;15175;48.154;11.534;2023-03-14T07:11:04;9.50;99.90
15967;DHT22;15175;48.154;11.534;2023-03-14T07:13:33;9.50;99.90
15967;DHT22;15175;48.154;11.534;2023-03-14T07:16:05;9.50;99.90
15967;DHT22;15175;48.154;11.534;2023-03-14T07:18:32;9.50;99.90
15967;DHT22;15175;48.154;11.534;2023-03-14T07:21:05;9.60;99.90
15967;DHT22;15175;48.154;11.534;2023-03-14T07:23:32;9.60;99.90
15967;DHT22;15175;48.154;11.534;2023-03-14T07:26:00;9.70;99.90
15967;DHT22;15175;48.154;11.534;2023-03-14T07:28:29;9.70;99.90
15967;DHT22;15175;48.154;11.534;2023-03-14T07:31:04;9.80;99.90
15967;DHT22;15175;48.154;11.534;2023-03-14T07:33:32;9.80;99.90
15967;DHT22;15175;48.154;11.534;2023-03-14T07:36:00;9.80;99.90
15967;DHT22;15175;48.154;11.534;2023-03-14T07:38:29;9.90;99.90
15967;DHT22;15175;48.154;11.534;2023-03-14T07:41:23;9.90;99.90
15967;DHT22;15175;48.154;11.534;2023-03-14T07:44:09;10.00;99.90
15967;DHT22;15175;48.154;11.534;2023-03-14T07:46:36;10.00;99.90
15967;DHT22;15175;48.154;11.534;2023-03-14T07:49:03;10.00;99.90
15967;DHT22;15175;48.154;11.534;2023-03-14T07:51:30;9.90;99.90
15967;DHT22;15175;48.154;11.534;2023-03-14T07:53:58;10.00;99.90
15967;DHT22;15175;48.154;11.534;2023-03-14T07:56:26;9.90;99.90
15967;DHT22;15175;48.154;11.534;2023-03-14T07:58:53;10.00;99.90
15967;DHT22;15175;48.154;11.534;2023-03-14T08:01:20;10.00;99.90
15967;DHT22;15175;48.154;11.534;2023-03-14T08:03:47;10.10;99.90
15967;DHT22;15175;48.154;11.534;2023-03-14T08:06:14;10.10;99.90
15967;DHT22;15175;48.154;11.534;2023-03-14T08:08:41;10.10;99.90
15967;DHT22;15175;48.154;11.534;2023-03-14T08:11:10;10.20;99.90
15967;DHT22;15175;48.154;11.534;2023-03-14T08:13:37;10.20;99.90
15967;DHT22;15175;48.154;11.534;2023-03-14T08:16:05;10.20;99.90
15967;DHT22;15175;48.154;11.534;2023-03-14T08:18:32;10.20;99.90
15967;DHT22;15175;48.154;11.534;2023-03-14T08:20:59;10.30;99.90
15967;DHT22;15175;48.154;11.534;2023-03-14T08:23:26;10.30;99.90
15967;DHT22;15175;48.154;11.534;2023-03-14T08:25:53;10.40;99.90
15967;DHT22;15175;48.154;11.534;2023-03-14T08:28:22;10.40;99.90
15967;DHT22;15175;48.154;11.534;2023-03-14T08:30:49;10.40;99.90
15967;DHT22;15175;48.154;11.534;2023-03-14T08:33:16;10.50;99.90
15967;DHT22;15175;48.154;11.534;2023-03-14T08:35:43;10.50;99.90
15967;DHT22;15175;48.154;11.534;2023-03-14T08:38:10;10.50;99.90
15967;DHT22;15175;48.154;11.534;2023-03-14T08:40:37;10.50;99.90
15967;DHT22;15175;48.154;11.534;2023-03-14T08:43:04;10.60;99.90
15967;DHT22;15175;48.154;11.534;2023-03-14T08:45:32;10.60;99.90
15967;DHT22;15175;48.154;11.534;2023-03-14T08:47:59;10.60;99.90
15967;DHT22;15175;48.154;11.534;2023-03-14T08:50:26;10.70;99.90
15967;DHT22;15175;48.154;11.534;2023-03-14T08:52:53;10.70;99.90
15967;DHT22;15175;48.154;11.534;2023-03-14T08:55:21;10.70;99.90
15967;DHT22;15175;48.154;11.534;2023-03-14T08:57:48;10.70;99.90
15967;DHT22;15175;48.154;11.534;2023-03-14T09:00:16;10.70;99.90
15967;DHT22;15175;48.154;11.534;2023-03-14T09:02:45;10.70;99.90
15967;DHT22;15175;48.154;11.534;2023-03-14T09:05:13;10.80;99.90
15967;DHT22;15175;48.154;11.534;2023-03-14T09:07:40;10.70;99.90
15967;DHT22;15175;48.154;11.534;2023-03-14T09:10:09;10.80;99.90
15967;DHT22;15175;48.154;11.534;2023-03-14T09:12:36;10.80;99.90
15967;DHT22;15175;48.154;11.534;2023-03-14T09:15:04;10.80;99.90
15967;DHT22;15175;48.154;11.534;2023-03-14T09:17:31;10.90;99.90
15967;DHT22;15175;48.154;11.534;2023-03-14T09:19:59;11.00;99.90
15967;DHT22;15175;48.154;11.534;2023-03-14T09:22:26;10.90;99.90
15967;DHT22;15175;48.154;11.534;2023-03-14T09:24:53;11.00;99.90
15967;DHT22;15175;48.154;11.534;2023-03-14T09:27:20;10.90;99.90
15967;DHT22;15175;48.154;11.534;2023-03-14T09:29:47;11.00;99.90
15967;DHT22;15175;48.154;11.534;2023-03-14T09:32:14;11.00;99.90
15967;DHT22;15175;48.154;11.534;2023-03-14T09:34:41;11.00;99.90
15967;DHT22;15175;48.154;11.534;2023-03-14T09:37:10;11.00;99.90
15967;DHT22;15175;48.154;11.534;2023-03-14T09:39:37;11.00;99.90
15967;DHT22;15175;48.154;11.534;2023-03-14T09:42:06;11.10;99.90
15967;DHT22;15175;48.154;11.534;2023-03-14T09:44:37;11.10;99.90
15967;DHT22;15175;48.154;11.534;2023-03-14T09:47:07;11.10;99.90
15967;DHT22;15175;48.154;11.534;2023-03-14T09:49:39;11.10;99.90
15967;DHT22;15175;48.154;11.534;2023-03-14T09:52:13;11.20;99.90
15967;DHT22;15175;48.154;11.534;2023-03-14T09:54:44;11.20;99.90
15967;DHT22;15175;48.154;11.534;2023-03-14T09:57:14;11.20;99.90
15967;DHT22;15175;48.154;11.534;2023-03-14T09:59:44;11.20;99.90
15967;DHT22;15175;48.154;11.534;2023-03-14T10:02:18;11.20;99.90
15967;DHT22;15175;48.154;11.534;2023-03-14T10:04:47;11.20;99.90
15967;DHT22;15175;48.154;11.534;2023-03-14T10:07:18;11.10;99.90
15967;DHT22;15175;48.154;11.534;2023-03-14T10:09:49;11.10;99.90
15967;DHT22;15175;48.154;11.534;2023-03-14T10:12:17;11.00;99.90
15967;DHT22;15175;48.154;11.534;2023-03-14T10:14:49;11.10;99.90
15967;DHT22;15175;48.154;11.534;2023-03-14T10:17:18;11.10;99.90
15967;DHT22;15175;48.154;11.534;2023-03-14T10:19:53;11.10;99.90
15967;DHT22;15175;48.154;11.534;2023-03-14T10:22:23;11.20;99.90
15967;DHT22;15175;48.154;11.534;2023-03-14T10:24:53;11.30;99.90
15967;DHT22;15175;48.154;11.534;2023-03-14T10:27:23;11.40;99.90
15967;DHT22;15175;48.154;11.534;2023-03-14T10:29:55;11.50;99.90
15967;DHT22;15175;48.154;11.534;2023-03-14T10:32:28;11.70;99.90
15967;DHT22;15175;48.154;11.534;2023-03-14T10:35:19;11.90;99.90
15967;DHT22;15175;48.154;11.534;2023-03-14T10:37:53;11.90;99.90
15967;DHT22;15175;48.154;11.534;2023-03-14T10:40:27;11.90;99.90
15967;DHT22;15175;48.154;11.534;2023-03-14T10:42:55;12.00;99.90
15967;DHT22;15175;48.154;11.534;2023-03-14T10:45:36;12.10;99.90
15967;DHT22;15175;48.154;11.534;2023-03-14T10:48:19;12.20;99.90
15967;DHT22;15175;48.154;11.534;2023-03-14T10:50:54;12.20;99.90
15967;DHT22;15175;48.154;11.534;2023-03-14T10:53:23;12.20;99.90
15967;DHT22;15175;48.154;11.534;2023-03-14T10:55:51;12.20;99.90
15967;DHT22;15175;48.154;11.534;2023-03-14T10:58:23;12.20;99.90
15967;DHT22;15175;48.154;11.534;2023-03-14T11:00:57;12.30;99.90
15967;DHT22;15175;48.154;11.534;2023-03-14T11:03:28;12.30;99.90
15967;DHT22;15175;48.154;11.534;2023-03-14T11:05:59;12.30;99.90
15967;DHT22;15175;48.154;11.534;2023-03-14T11:08:32;12.30;99.90
15967;DHT22;15175;48.154;11.534;2023-03-14T11:11:10;12.30;99.90
15967;DHT22;15175;48.154;11.534;2023-03-14T11:13:45;12.30;99.90
15967;DHT22;15175;48.154;11.534;2023-03-14T11:16:21;12.40;99.90
15967;DHT22;15175;48.154;11.534;2023-03-14T11:19:03;12.40;99.90
15967;DHT22;15175;48.154;11.534;2023-03-14T11:21:39;12.50;99.90
15967;DHT22;15175;48.154;11.534;2023-03-14T11:24:33;12.50;99.90
15967;DHT22;15175;48.154;11.534;2023-03-14T11:27:07;12.50;99.90
15967;DHT22;15175;48.154;11.534;2023-03-14T11:29:39;12.60;99.90
15967;DHT22;15175;48.154;11.534;2023-03-14T11:32:13;12.70;99.90
15967;DHT22;15175;48.154;11.534;2023-03-14T11:34:46;12.80;99.90
15967;DHT22;15175;48.154;11.534;2023-03-14T11:37:18;12.90;99.90
15967;DHT22;15175;48.154;11.534;2023-03-14T11:39:56;12.90;99.90
15967;DHT22;15175;48.154;11.534;2023-03-14T11:42:24;13.00;99.90
15967;DHT22;15175;48.154;11.534;2023-03-14T11:44:55;13.00;99.90
15967;DHT22;15175;48.154;11.534;2023-03-14T11:47:25;13.00;99.90
15967;DHT22;15175;48.154;11.534;2023-03-14T11:49:58;13.00;99.90
15967;DHT22;15175;48.154;11.534;2023-03-14T11:52:30;13.00;99.90
15967;DHT22;15175;48.154;11.534;2023-03-14T11:55:04;13.00;99.90
15967;DHT22;15175;48.154;11.534;2023-03-14T11:57:32;13.00;99.90
15967;DHT22;15175;48.154;11.534;2023-03-14T12:00:03;12.90;99.90
15967;DHT22;15175;48.154;11.534;2023-03-14T12:02:46;12.90;99.90
15967;DHT22;15175;48.154;11.534;2023-03-14T12:05:37;12.90;99.90
15967;DHT22;15175;48.154;11.534;2023-03-14T12:08:29;12.80;99.90
15967;DHT22;15175;48.154;11.534;2023-03-14T12:11:01;12.90;99.90
15967;DHT22;15175;48.154;11.534;2023-03-14T12:13:32;12.90;99.90
15967;DHT22;15175;48.154;11.534;2023-03-14T12:16:04;12.90;99.90
15967;DHT22;15175;48.154;11.534;2023-03-14T12:18:34;12.90;99.90
15967;DHT22;15175;48.154;11.534;2023-03-14T12:21:06;12.80;99.90
15967;DHT22;15175;48.154;11.534;2023-03-14T12:23:40;12.80;99.90
15967;DHT22;15175;48.154;11.534;2023-03-14T12:26:15;12.80;99.90
15967;DHT22;15175;48.154;11.534;2023-03-14T12:28:44;12.80;99.90
15967;DHT22;15175;48.154;11.534;2023-03-14T12:31:36;12.80;99.90
15967;DHT22;15175;48.154;11.534;2023-03-14T12:34:24;12.80;99.90
15967;DHT22;15175;48.154;11.534;2023-03-14T12:36:59;12.90;99.90
15967;DHT22;15175;48.154;11.534;2023-03-14T12:39:35;12.90;99.90
15967;DHT22;15175;48.154;11.534;2023-03-14T12:42:10;12.90;99.90
15967;DHT22;15175;48.154;11.534;2023-03-14T12:44:46;12.90;99.90
15967;DHT22;15175;48.154;11.534;2023-03-14T12:53:31;13.10;99.90
15967;DHT22;15175;48.154;11.534;2023-03-14T12:56:11;13.00;99.90
15967;DHT22;15175;48.154;11.534;2023-03-14T12:58:44;13.10;99.90
15967;DHT22;15175;48.154;11.534;2023-03-14T13:01:17;13.00;99.90
15967;DHT22;15175;48.154;11.534;2023-03-14T13:03:46;12.90;99.90
15967;DHT22;15175;48.154;11.534;2023-03-14T13:06:51;12.90;99.90
15967;DHT22;15175;48.154;11.534;2023-03-14T13:12:31;12.80;99.90
15967;DHT22;15175;48.154;11.534;2023-03-14T13:15:11;12.80;99.90
15967;DHT22;15175;48.154;11.534;2023-03-14T13:17:40;12.70;99.90
15967;DHT22;15175;48.154;11.534;2023-03-14T13:20:13;12.70;99.90
15967;DHT22;15175;48.154;11.534;2023-03-14T13:22:47;12.70;99.90
15967;DHT22;15175;48.154;11.534;2023-03-14T13:25:14;12.70;99.90
15967;DHT22;15175;48.154;11.534;2023-03-14T13:27:42;12.60;99.90
15967;DHT22;15175;48.154;11.534;2023-03-14T13:30:21;12.60;99.90
15967;DHT22;15175;48.154;11.534;2023-03-14T13:32:50;12.60;99.90
15967;DHT22;15175;48.154;11.534;2023-03-14T13:35:20;12.60;99.90
15967;DHT22;15175;48.154;11.534;2023-03-14T13:37:53;12.50;99.90
15967;DHT22;15175;48.154;11.534;2023-03-14T13:40:26;12.40;99.90
15967;DHT22;15175;48.154;11.534;2023-03-14T13:43:06;12.20;99.90
15967;DHT22;15175;48.154;11.534;2023-03-14T13:45:50;12.10;99.90
15967;DHT22;15175;48.154;11.534;2023-03-14T13:48:19;11.90;99.90
15967;DHT22;15175;48.154;11.534;2023-03-14T13:50:51;11.80;99.90
15967;DHT22;15175;48.154;11.534;2023-03-14T13:53:19;11.80;99.90
15967;DHT22;15175;48.154;11.534;2023-03-14T13:55:47;11.70;99.90
15967;DHT22;15175;48.154;11.534;2023-03-14T13:58:21;11.70;99.90
15967;DHT22;15175;48.154;11.534;2023-03-14T14:01:02;11.60;99.90
15967;DHT22;15175;48.154;11.534;2023-03-14T14:03:32;11.60;99.90
15967;DHT22;15175;48.154;11.534;2023-03-14T14:05:59;11.40;99.90
15967;DHT22;15175;48.154;11.534;2023-03-14T14:08:27;11.30;99.90
15967;DHT22;15175;48.154;11.534;2023-03-14T14:10:58;11.20;99.90
15967;DHT22;15175;48.154;11.534;2023-03-14T14:13:28;11.10;99.90
15967;DHT22;15175;48.154;11.534;2023-03-14T14:15:56;11.00;99.90
15967;DHT22;15175;48.154;11.534;2023-03-14T14:18:27;10.90;99.90
15967;DHT22;15175;48.154;11.534;2023-03-14T14:20:55;10.80;99.90
15967;DHT22;15175;48.154;11.534;2023-03-14T14:23:25;10.70;99.90
15967;DHT22;15175;48.154;11.534;2023-03-14T14:25:55;10.70;99.90
15967;DHT22;15175;48.154;11.534;2023-03-14T14:28:26;10.50;99.90
15967;DHT22;15175;48.154;11.534;2023-03-14T14:31:01;10.50;99.90
15967;DHT22;15175;48.154;11.534;2023-03-14T14:33:38;10.30;99.90
15967;DHT22;15175;48.154;11.534;2023-03-14T14:36:17;10.20;99.90
15967;DHT22;15175;48.154;11.534;2023-03-14T14:38:53;10.00;99.90
15967;DHT22;15175;48.154;11.534;2023-03-14T14:41:21;9.80;99.90
15967;DHT22;15175;48.154;11.534;2023-03-14T14:43:48;9.70;99.90
15967;DHT22;15175;48.154;11.534;2023-03-14T14:46:19;9.60;99.90
15967;DHT22;15175;48.154;11.534;2023-03-14T14:48:48;9.50;99.90
15967;DHT22;15175;48.154;11.534;2023-03-14T14:51:25;9.30;99.90
15967;DHT22;15175;48.154;11.534;2023-03-14T14:54:05;9.20;99.90
15967;DHT22;15175;48.154;11.534;2023-03-14T14:56:37;9.20;99.90
15967;DHT22;15175;48.154;11.534;2023-03-14T14:59:06;9.10;99.90
15967;DHT22;15175;48.154;11.534;2023-03-14T15:01:36;9.10;99.90
15967;DHT22;15175;48.154;11.534;2023-03-14T15:04:11;9.00;99.90
15967;DHT22;15175;48.154;11.534;2023-03-14T15:06:40;9.00;99.90
15967;DHT22;15175;48.154;11.534;2023-03-14T15:09:10;8.90;99.90
15967;DHT22;15175;48.154;11.534;2023-03-14T15:11:37;8.90;99.90
15967;DHT22;15175;48.154;11.534;2023-03-14T15:14:04;8.90;99.90
15967;DHT22;15175;48.154;11.534;2023-03-14T15:16:32;8.90;99.90
15967;DHT22;15175;48.154;11.534;2023-03-14T15:19:01;8.90;99.90
15967;DHT22;15175;48.154;11.534;2023-03-14T15:21:32;8.90;99.90
15967;DHT22;15175;48.154;11.534;2023-03-14T15:23:59;8.90;99.90
15967;DHT22;15175;48.154;11.534;2023-03-14T15:26:27;8.90;99.90
15967;DHT22;15175;48.154;11.534;2023-03-14T15:28:54;8.90;99.90
15967;DHT22;15175;48.154;11.534;2023-03-14T15:31:21;8.90;99.90
15967;DHT22;15175;48.154;11.534;2023-03-14T15:33:48;8.80;99.90
15967;DHT22;15175;48.154;11.534;2023-03-14T15:36:22;8.80;99.90
15967;DHT22;15175;48.154;11.534;2023-03-14T15:38:52;8.70;99.90
15967;DHT22;15175;48.154;11.534;2023-03-14T15:41:19;8.60;99.90
15967;DHT22;15175;48.154;11.534;2023-03-14T15:43:47;8.60;99.90
15967;DHT22;15175;48.154;11.534;2023-03-14T15:46:14;8.40;99.90
15967;DHT22;15175;48.154;11.534;2023-03-14T15:48:43;8.40;99.90
15967;DHT22;15175;48.154;11.534;2023-03-14T15:51:10;8.30;99.90
15967;DHT22;15175;48.154;11.534;2023-03-14T15:53:37;8.30;99.90
15967;DHT22;15175;48.154;11.534;2023-03-14T15:56:09;8.30;99.90